Time;durP1;ratioP1;P1;durP2;ratioP2;P2;SDS_P1;SDS_P2;PMS_P1;PMS_P2;Temp;Humidity;BMP_temperature;BMP_pressure;BME280_temperature;BME280_humidity;BME280_pressure;Samples;Min_cycle;Max_cycle;Signal;HPM_P1;HPM_P2
2021/08/30 00:01:26;;;;;;;14.68;8.10;;;;;;;14.78;69.41;99891.19;4863882;28;98627;-87
2021/08/30 00:03:52;;;;;;;14.60;8.45;;;;;;;14.82;69.61;99886.56;4863857;28;100843;-87
2021/08/30 00:06:18;;;;;;;12.40;9.10;;;;;;;14.80;69.68;99891.06;4879925;28;96581;-85
2021/08/30 00:08:43;;;;;;;11.43;9.15;;;;;;;14.78;69.66;99888.53;4864022;28;96988;-87
2021/08/30 00:11:09;;;;;;;13.30;8.77;;;;;;;14.87;69.36;99895.09;4879707;28;97595;-87
2021/08/30 00:13:35;;;;;;;14.32;8.40;;;;;;;14.73;69.81;99895.03;4879634;28;98449;-87
2021/08/30 00:16:00;;;;;;;14.55;9.10;;;;;;;14.67;70.01;99896.22;4863799;28;96610;-87
2021/08/30 00:18:26;;;;;;;11.80;9.55;;;;;;;14.71;69.70;99895.09;4849408;28;96859;-87
2021/08/30 00:20:52;;;;;;;13.93;8.65;;;;;;;14.74;69.39;99886.16;4850987;28;103085;-87
2021/08/30 00:23:17;;;;;;;16.35;9.50;;;;;;;14.73;69.89;99889.75;4851293;28;101241;-87
2021/08/30 00:25:43;;;;;;;12.55;9.57;;;;;;;14.73;70.01;99881.81;4850704;28;97040;-87
2021/08/30 00:28:09;;;;;;;12.65;9.30;;;;;;;14.70;70.12;99896.06;4883069;28;96608;-87
2021/08/30 00:30:34;;;;;;;12.80;9.80;;;;;;;14.75;69.52;99901.94;4866329;28;102244;-86
2021/08/30 00:33:00;;;;;;;11.52;9.88;;;;;;;14.65;69.92;99898.94;4882606;28;97397;-86
2021/08/30 00:35:25;;;;;;;16.27;10.65;;;;;;;14.60;69.95;99892.22;4882889;28;96537;-87
2021/08/30 00:37:51;;;;;;;12.40;10.73;;;;;;;14.61;70.06;99908.00;4882912;28;96910;-87
2021/08/30 00:40:16;;;;;;;11.02;9.93;;;;;;;14.61;69.71;99904.50;4866463;28;101646;-87
2021/08/30 00:42:43;;;;;;;13.25;10.02;;;;;;;14.52;70.42;99899.75;4850910;28;101519;-87
2021/08/30 00:45:10;;;;;;;15.65;10.52;;;;;;;14.45;70.51;99901.84;4882517;28;96598;-87
2021/08/30 00:47:38;;;;;;;11.68;10.43;;;;;;;14.50;70.44;99915.66;4899305;28;96851;-87
2021/08/30 00:50:05;;;;;;;12.88;10.13;;;;;;;14.45;70.43;99915.03;4865998;28;101345;-86
2021/08/30 00:52:30;;;;;;;14.38;10.00;;;;;;;14.41;70.29;99919.66;4882084;28;101556;-86
2021/08/30 00:54:56;;;;;;;14.43;10.90;;;;;;;14.41;70.89;99927.56;4882629;28;96534;-87
2021/08/30 00:57:23;;;;;;;15.52;10.50;;;;;;;14.38;70.61;99929.53;4866956;28;96865;-84
2021/08/30 00:59:49;;;;;;;16.77;10.88;;;;;;;14.34;70.78;99920.94;4866333;28;101666;-87
2021/08/30 01:02:14;;;;;;;16.67;11.20;;;;;;;14.29;70.97;99933.56;4850838;28;101271;-87
2021/08/30 01:04:41;;;;;;;15.25;11.00;;;;;;;14.24;70.87;99932.94;4866409;28;96688;-86
2021/08/30 01:07:17;;;;;;;11.40;10.18;;;;;;;14.24;71.06;99925.88;4882669;28;96526;-87
2021/08/30 01:10:04;;;;;;;13.98;11.23;;;;;;;14.28;71.06;99926.53;4882503;28;98142;-88
2021/08/30 01:12:32;;;;;;;12.52;10.90;;;;;;;14.30;70.79;99919.41;4898021;28;98237;-85
2021/08/30 01:15:07;;;;;;;15.07;10.65;;;;;;;14.34;70.74;99931.50;4881492;28;96661;-87
2021/08/30 01:17:34;;;;;;;12.55;10.07;;;;;;;14.25;70.56;99913.53;4866379;28;96926;-87
2021/08/30 01:20:03;;;;;;;14.98;10.50;;;;;;;14.33;70.58;99924.50;4881986;28;97461;-86
2021/08/30 01:22:29;;;;;;;15.00;10.85;;;;;;;14.31;70.64;99929.03;4898759;28;97619;-84
2021/08/30 01:24:56;;;;;;;13.43;11.13;;;;;;;14.31;70.66;99925.53;4881961;28;96584;-87
2021/08/30 01:27:23;;;;;;;11.90;10.10;;;;;;;14.24;71.08;99927.66;4882186;28;96569;-87
2021/08/30 01:30:05;;;;;;;16.10;11.73;;;;;;;14.24;71.14;99928.50;4865054;28;101081;-87
2021/08/30 01:32:32;;;;;;;13.20;10.40;;;;;;;14.21;71.01;99928.69;4866378;28;98421;-87
2021/08/30 01:35:01;;;;;;;14.00;10.93;;;;;;;14.21;71.02;99926.03;4882078;28;96536;-87
2021/08/30 01:37:28;;;;;;;14.70;10.82;;;;;;;14.18;71.10;99920.09;4866254;28;96841;-87
2021/08/30 01:39:54;;;;;;;14.90;11.38;;;;;;;14.16;70.99;99919.31;4881215;28;98654;-88
2021/08/30 01:42:20;;;;;;;12.98;10.50;;;;;;;14.18;70.80;99913.00;4881359;28;101139;-87
2021/08/30 01:44:46;;;;;;;16.48;10.43;;;;;;;14.20;70.85;99911.16;4881708;28;96632;-87
2021/08/30 01:47:12;;;;;;;14.68;11.23;;;;;;;14.28;71.10;99915.97;4881741;28;96946;-88
2021/08/30 01:49:37;;;;;;;16.42;11.15;;;;;;;14.25;70.85;99905.59;4881843;28;98188;-87
2021/08/30 01:52:03;;;;;;;15.20;10.68;;;;;;;14.26;70.85;99908.16;4881501;28;101738;-87
2021/08/30 01:54:29;;;;;;;12.55;11.02;;;;;;;14.22;70.90;99901.38;4881473;28;96558;-85
2021/08/30 01:56:57;;;;;;;13.70;10.68;;;;;;;14.22;70.87;99897.84;4881959;28;96826;-87
2021/08/30 02:02:08;;;;;;;13.18;11.07;;;;;;;14.12;71.28;99891.41;4897958;28;98381;-88
2021/08/30 02:04:35;;;;;;;12.88;11.40;;;;;;;14.09;71.74;99881.00;4865163;28;96562;-88
2021/08/30 02:07:04;;;;;;;14.07;11.65;;;;;;;14.06;71.90;99886.47;4881689;28;96939;-87
2021/08/30 02:09:30;;;;;;;14.82;11.93;;;;;;;13.99;71.65;99885.94;4880891;28;99957;-86
2021/08/30 02:11:56;;;;;;;12.85;10.88;;;;;;;14.12;71.29;99886.13;4865378;28;100478;-88
2021/08/30 02:14:22;;;;;;;12.95;11.60;;;;;;;14.07;71.31;99883.72;4897555;28;96597;-87
2021/08/30 02:16:52;;;;;;;12.05;10.75;;;;;;;14.08;71.69;99887.22;4881171;28;96917;-88
2021/08/30 02:19:41;;;;;;;12.13;11.03;;;;;;;14.14;71.54;99890.38;4865286;28;101624;-87
2021/08/30 02:22:13;;;;;;;13.10;11.65;;;;;;;14.15;71.80;99883.31;4865669;28;101677;-88
2021/08/30 02:24:45;;;;;;;16.05;12.23;;;;;;;14.16;71.34;99887.63;4880716;28;96612;-88
2021/08/30 02:27:35;;;;;;;12.65;11.25;;;;;;;14.11;71.92;99889.69;4881112;28;96855;-87
2021/08/30 02:30:31;;;;;;;12.32;11.10;;;;;;;14.13;71.72;99888.66;4864800;28;101464;-86
2021/08/30 02:33:01;;;;;;;14.73;11.32;;;;;;;14.17;71.52;99882.28;4879849;28;99466;-86
2021/08/30 02:35:29;;;;;;;14.73;11.60;;;;;;;14.10;71.43;99886.19;4881595;28;96541;-84
2021/08/30 02:37:55;;;;;;;13.18;11.18;;;;;;;14.11;71.42;99880.00;4881011;28;96974;-87
2021/08/30 02:40:24;;;;;;;12.73;11.43;;;;;;;14.14;71.37;99871.91;4880781;28;101197;-86
2021/08/30 02:42:50;;;;;;;14.00;11.75;;;;;;;14.13;71.37;99872.81;4879583;28;98018;-87
2021/08/30 02:45:17;;;;;;;16.55;12.52;;;;;;;14.12;71.76;99872.91;4865131;28;96558;-86
2021/08/30 02:47:42;;;;;;;15.05;11.82;;;;;;;14.11;71.73;99880.00;4881120;28;96660;-88
2021/08/30 02:50:09;;;;;;;12.95;11.55;;;;;;;14.08;72.33;99881.94;4864627;28;101449;-87
2021/08/30 02:52:36;;;;;;;16.48;11.35;;;;;;;14.04;72.12;99876.81;4864519;28;101627;-87
2021/08/30 02:55:02;;;;;;;13.10;11.70;;;;;;;14.10;72.02;99880.06;4880235;28;96589;-87
2021/08/30 02:57:28;;;;;;;13.50;11.55;;;;;;;14.15;71.82;99884.16;4864318;28;96792;-84
2021/08/30 02:59:55;;;;;;;15.98;11.90;;;;;;;14.12;71.96;99883.47;4880566;28;98201;-88
2021/08/30 03:02:22;;;;;;;13.77;11.93;;;;;;;14.14;72.18;99881.63;4880459;28;99979;-86
2021/08/30 03:04:48;;;;;;;14.07;11.70;;;;;;;14.09;72.28;99868.66;4880514;28;96572;-88
2021/08/30 03:07:14;;;;;;;14.70;11.98;;;;;;;14.12;72.26;99879.03;4865085;28;96932;-88
2021/08/30 03:09:39;;;;;;;14.45;10.93;;;;;;;14.12;72.28;99880.84;4848715;28;101020;-87
2021/08/30 03:12:06;;;;;;;12.85;11.25;;;;;;;14.13;71.64;99880.75;4880928;28;97914;-87
2021/08/30 03:14:33;;;;;;;18.80;11.57;;;;;;;14.11;72.44;99884.41;4864401;28;96568;-86
2021/08/30 03:17:02;;;;;;;14.35;10.93;;;;;;;14.02;72.20;99872.56;4880392;28;96928;-84
2021/08/30 03:19:28;;;;;;;15.00;11.70;;;;;;;14.14;72.54;99881.63;4879534;28;97763;-87
2021/08/30 03:21:55;;;;;;;16.90;11.90;;;;;;;14.07;72.09;99894.28;4880298;28;98521;-88
2021/08/30 03:24:20;;;;;;;15.45;12.63;;;;;;;14.11;72.18;99898.47;4864256;28;96779;-88
2021/08/30 03:26:50;;;;;;;17.00;12.18;;;;;;;14.06;72.24;99905.78;4880224;28;96921;-87
2021/08/30 03:29:17;;;;;;;13.02;11.27;;;;;;;14.13;72.54;99899.22;4879897;28;101761;-88
2021/08/30 03:31:43;;;;;;;12.07;10.38;;;;;;;14.08;72.57;99900.41;4879728;28;101507;-87
2021/08/30 03:34:09;;;;;;;15.38;11.90;;;;;;;14.02;72.57;99889.28;4864556;28;96630;-87
2021/08/30 03:36:36;;;;;;;14.65;10.50;;;;;;;14.10;72.18;99902.03;4880467;28;96995;-85
2021/08/30 03:39:01;;;;;;;17.83;10.30;;;;;;;14.15;72.14;99893.88;4864076;28;100318;-87
2021/08/30 03:41:27;;;;;;;12.35;10.45;;;;;;;14.13;72.21;99895.72;4879860;28;101640;-88
2021/08/30 03:43:54;;;;;;;12.57;10.05;;;;;;;14.19;72.16;99898.88;4895606;28;96688;-88
2021/08/30 03:46:20;;;;;;;12.85;11.27;;;;;;;14.14;72.40;99893.03;4864162;28;96897;-88
2021/08/30 03:48:46;;;;;;;15.02;11.15;;;;;;;14.12;72.71;99899.31;4863988;28;100286;-88
2021/08/30 03:51:12;;;;;;;13.80;10.60;;;;;;;14.13;72.64;99896.56;4879775;28;101260;-88
2021/08/30 03:53:38;;;;;;;11.55;10.02;;;;;;;14.13;72.76;99914.19;4865319;28;96657;-88
2021/08/30 03:56:04;;;;;;;13.05;10.48;;;;;;;14.16;72.70;99914.03;4883463;28;96780;-88
2021/08/30 03:58:31;;;;;;;14.32;11.00;;;;;;;14.06;72.85;99921.63;4867352;28;101215;-84
2021/08/30 04:01:03;;;;;;;11.38;10.23;;;;;;;14.09;72.80;99912.69;4883558;28;98408;-87
2021/08/30 04:03:29;;;;;;;13.90;11.15;;;;;;;14.17;72.62;99927.16;4868187;28;96636;-84
2021/08/30 04:05:55;;;;;;;17.48;10.35;;;;;;;14.06;73.09;99918.97;4883104;28;96952;-87
2021/08/30 04:08:20;;;;;;;14.77;10.32;;;;;;;14.04;72.95;99915.56;4866826;28;98190;-87
2021/08/30 04:10:46;;;;;;;12.43;10.57;;;;;;;14.08;73.04;99914.47;4882543;28;97723;-87
2021/08/30 04:13:11;;;;;;;14.95;10.32;;;;;;;14.13;73.36;99916.84;4851654;28;96517;-87
2021/08/30 04:15:37;;;;;;;16.90;11.73;;;;;;;14.07;73.26;99917.19;4867069;28;96823;-86
2021/08/30 04:18:02;;;;;;;14.20;11.10;;;;;;;14.08;73.52;99918.88;4851076;28;101107;-86
2021/08/30 04:20:28;;;;;;;17.98;11.93;;;;;;;14.09;73.39;99910.03;4866992;28;100953;-87
2021/08/30 04:22:53;;;;;;;15.68;11.68;;;;;;;14.04;73.81;99919.03;4882534;28;96533;-88
2021/08/30 04:25:19;;;;;;;15.93;11.73;;;;;;;14.11;73.67;99919.59;4867320;28;97004;-87
2021/08/30 04:27:44;;;;;;;15.98;11.93;;;;;;;14.23;73.29;99918.91;4850853;28;100229;-86
2021/08/30 04:30:10;;;;;;;13.82;10.93;;;;;;;14.23;73.04;99912.78;4882755;28;97734;-87
2021/08/30 04:32:37;;;;;;;12.63;11.35;;;;;;;14.20;73.47;99902.38;4860570;28;96633;-87
2021/08/30 04:35:05;;;;;;;13.18;10.80;;;;;;;14.25;73.37;99913.53;4881518;28;96820;-86
2021/08/30 04:37:30;;;;;;;13.32;11.05;;;;;;;14.18;73.74;99909.53;4866597;28;100016;-84
2021/08/30 04:39:56;;;;;;;13.85;11.63;;;;;;;14.22;73.72;99908.41;4866590;28;101470;-87
2021/08/30 04:42:21;;;;;;;11.90;10.52;;;;;;;14.26;73.15;99916.09;4867075;28;96610;-86
2021/08/30 04:44:49;;;;;;;14.00;11.30;;;;;;;14.16;73.96;99903.47;4851095;28;96712;-88
2021/08/30 04:47:15;;;;;;;13.45;11.23;;;;;;;14.20;74.05;99907.66;4866770;28;101064;-87
2021/08/30 04:49:40;;;;;;;12.23;10.90;;;;;;;14.28;73.48;99900.16;4866437;28;100993;-87
2021/08/30 04:52:06;;;;;;;16.02;11.65;;;;;;;14.37;73.17;99910.22;4882318;28;96570;-87
2021/08/30 04:54:31;;;;;;;14.75;11.15;;;;;;;14.40;73.62;99909.19;4866410;28;96625;-83
2021/08/30 04:56:57;;;;;;;12.90;11.52;;;;;;;14.32;74.16;99914.06;4897281;28;101559;-87
2021/08/30 04:59:22;;;;;;;14.13;11.30;;;;;;;14.31;74.19;99914.97;4866142;28;101331;-87
2021/08/30 05:01:48;;;;;;;14.88;11.32;;;;;;;14.25;74.38;99916.16;4882340;28;96624;-87
2021/08/30 05:04:13;;;;;;;13.10;11.00;;;;;;;14.27;74.32;99919.56;4866356;28;96864;-87
2021/08/30 05:06:39;;;;;;;14.73;11.68;;;;;;;14.29;74.01;99911.59;4865568;28;98514;-87
2021/08/30 05:09:04;;;;;;;13.23;10.38;;;;;;;14.31;74.44;99917.59;4850380;28;100023;-87
2021/08/30 05:11:30;;;;;;;19.05;11.52;;;;;;;14.31;74.13;99915.84;4882165;28;96660;-84
2021/08/30 05:13:56;;;;;;;24.20;11.68;;;;;;;14.41;73.96;99911.75;4866689;28;96812;-87
2021/08/30 05:16:21;;;;;;;12.07;9.70;;;;;;;14.54;73.40;99919.84;4865734;28;102809;-87
2021/08/30 05:18:47;;;;;;;15.85;11.32;;;;;;;14.56;73.46;99919.75;4850177;28;101470;-88
2021/08/30 05:21:13;;;;;;;10.75;9.65;;;;;;;14.57;73.58;99919.66;4881939;28;96542;-88
2021/08/30 05:23:38;;;;;;;11.98;9.98;;;;;;;14.62;73.31;99922.06;4849625;28;96862;-85
2021/08/30 05:26:04;;;;;;;15.20;9.48;;;;;;;14.67;73.77;99926.13;4881785;28;98670;-87
2021/08/30 05:28:30;;;;;;;14.20;11.18;;;;;;;14.65;73.97;99925.38;4850100;28;101477;-85
2021/08/30 05:30:56;;;;;;;11.75;9.27;;;;;;;14.73;74.03;99927.56;4881821;28;96646;-87
2021/08/30 05:33:21;;;;;;;11.32;9.02;;;;;;;14.81;73.86;99921.88;4865922;28;96914;-87
2021/08/30 05:35:47;;;;;;;9.80;8.65;;;;;;;14.86;73.54;99917.13;4865638;28;100619;-86
2021/08/30 05:38:12;;;;;;;9.20;8.13;;;;;;;14.87;73.76;99921.50;4866180;28;100949;-87
2021/08/30 05:40:38;;;;;;;16.00;9.23;;;;;;;14.93;73.38;99923.78;4865896;28;96591;-86
2021/08/30 05:43:03;;;;;;;12.50;9.18;;;;;;;15.00;73.55;99924.28;4881983;28;96597;-87
2021/08/30 05:45:31;;;;;;;10.25;8.52;;;;;;;15.11;73.20;99925.34;4865161;28;101802;-82
2021/08/30 05:47:56;;;;;;;14.65;9.52;;;;;;;15.20;73.23;99923.09;4866267;28;98142;-88
2021/08/30 05:50:22;;;;;;;12.55;9.63;;;;;;;15.33;72.82;99918.75;4850410;28;96573;-87
2021/08/30 05:52:47;;;;;;;12.40;9.10;;;;;;;15.37;73.04;99928.22;4882077;28;96917;-87
2021/08/30 05:55:13;;;;;;;17.00;10.25;;;;;;;15.38;73.33;99924.63;4865571;28;101659;-87
2021/08/30 05:57:38;;;;;;;13.98;9.52;;;;;;;15.42;73.11;99926.16;4849462;28;100502;-87
2021/08/30 06:00:06;;;;;;;12.65;8.43;;;;;;;15.43;72.93;99916.44;4881752;28;96502;-86
2021/08/30 06:02:31;;;;;;;10.63;8.38;;;;;;;15.52;72.58;99914.06;4850041;28;96929;-82
2021/08/30 06:04:57;;;;;;;12.05;8.93;;;;;;;15.59;72.22;99907.47;4865236;28;97778;-88
2021/08/30 06:07:22;;;;;;;12.82;8.95;;;;;;;15.63;72.58;99906.34;4865111;28;100861;-84
2021/08/30 06:09:48;;;;;;;14.25;8.85;;;;;;;15.70;72.85;99912.13;4864981;28;96618;-88
2021/08/30 06:12:13;;;;;;;11.88;8.82;;;;;;;15.80;72.16;99910.63;4864530;28;96963;-78
2021/08/30 06:14:40;;;;;;;11.15;9.98;;;;;;;15.75;72.35;99903.91;4896061;28;100938;-78
2021/08/30 06:17:06;;;;;;;10.68;9.00;;;;;;;15.81;72.03;99911.47;4897213;28;97593;-78
2021/08/30 06:19:31;;;;;;;12.75;9.52;;;;;;;15.86;72.32;99916.50;4864578;28;96597;-78
2021/08/30 06:21:57;;;;;;;12.40;9.90;;;;;;;15.91;72.18;99928.50;4849105;28;96820;-78
2021/08/30 06:24:23;;;;;;;13.63;9.55;;;;;;;15.93;72.33;99921.28;4863833;28;97840;-78
2021/08/30 06:26:48;;;;;;;10.63;8.90;;;;;;;16.01;71.99;99923.47;4864567;28;99313;-79
2021/08/30 06:29:14;;;;;;;12.82;8.30;;;;;;;16.01;72.22;99920.81;4864535;28;96616;-78
2021/08/30 06:31:39;;;;;;;12.15;8.80;;;;;;;16.09;72.00;99925.63;4848386;28;96987;-78
2021/08/30 06:34:05;;;;;;;10.90;9.05;;;;;;;16.13;72.06;99924.47;4863506;28;100942;-79
2021/08/30 06:36:30;;;;;;;12.05;7.57;;;;;;;16.22;71.99;99919.44;4895681;28;101129;-78
2021/08/30 06:38:55;;;;;;;9.20;8.20;;;;;;;16.40;71.13;99914.75;4880570;28;96623;-78
2021/08/30 06:41:23;;;;;;;8.73;7.82;;;;;;;16.57;70.48;99905.72;4848776;28;96908;-79
2021/08/30 06:43:48;;;;;;;9.90;8.48;;;;;;;16.84;70.00;99915.47;4848452;28;100824;-79
2021/08/30 06:46:14;;;;;;;14.80;7.85;;;;;;;16.87;69.69;99905.56;4864767;28;97312;-79
2021/08/30 06:48:39;;;;;;;11.90;7.50;;;;;;;17.04;69.19;99909.69;4864364;28;96534;-79
2021/08/30 06:51:05;;;;;;;10.27;7.85;;;;;;;17.14;68.92;99902.84;4849175;28;96614;-78
2021/08/30 06:53:30;;;;;;;9.93;8.55;;;;;;;17.26;68.75;99900.31;4880326;28;98081;-78
2021/08/30 06:55:56;;;;;;;11.68;7.90;;;;;;;17.31;68.65;99911.47;4863925;28;100775;-78
2021/08/30 06:58:21;;;;;;;12.02;8.98;;;;;;;17.29;69.04;99908.06;4863697;28;96656;-78
2021/08/30 07:00:48;;;;;;;10.23;8.93;;;;;;;17.49;68.63;99904.88;4880285;28;96893;-78
2021/08/30 07:03:14;;;;;;;9.55;7.90;;;;;;;17.51;68.65;99907.41;4848243;28;101375;-78
2021/08/30 07:05:39;;;;;;;12.88;8.68;;;;;;;17.51;67.99;99902.09;4864356;28;97838;-79
2021/08/30 07:08:05;;;;;;;15.70;7.80;;;;;;;17.82;67.59;99907.00;4880419;28;96563;-78
2021/08/30 07:10:31;;;;;;;11.77;8.20;;;;;;;17.95;67.39;99912.31;4863821;28;96912;-79
2021/08/30 07:12:57;;;;;;;14.32;7.80;;;;;;;18.06;67.17;99916.81;4863630;28;100779;-86
2021/08/30 07:15:23;;;;;;;12.93;7.85;;;;;;;17.93;67.90;99910.72;4880709;28;97848;-89
2021/08/30 07:17:48;;;;;;;11.15;9.05;;;;;;;17.84;67.97;99913.06;4866401;28;96576;-87
2021/08/30 07:20:14;;;;;;;9.82;7.90;;;;;;;18.02;67.55;99921.50;4865265;28;96984;-87
2021/08/30 07:22:39;;;;;;;9.77;7.53;;;;;;;18.15;66.85;99899.38;4880252;28;98472;-87
2021/08/30 07:25:05;;;;;;;11.00;7.50;;;;;;;18.32;66.48;99910.50;4863924;28;99826;-87
2021/08/30 07:27:31;;;;;;;16.33;8.13;;;;;;;18.38;66.31;99905.69;4880705;28;96638;-85
2021/08/30 07:29:57;;;;;;;11.68;8.60;;;;;;;18.44;66.28;99907.88;4883595;28;96765;-87
2021/08/30 07:32:22;;;;;;;13.23;8.55;;;;;;;18.47;66.26;99905.88;4867696;28;98000;-85
2021/08/30 07:34:48;;;;;;;8.65;7.75;;;;;;;18.44;66.04;99910.53;4882909;28;101427;-85
2021/08/30 07:37:13;;;;;;;9.38;6.72;;;;;;;18.44;66.48;99922.06;4883353;28;96552;-84
2021/08/30 07:39:39;;;;;;;9.43;7.38;;;;;;;18.41;66.71;99916.09;4851793;28;96884;-84
2021/08/30 07:42:04;;;;;;;11.13;7.85;;;;;;;18.31;66.72;99908.78;4867450;28;97429;-80
2021/08/30 07:44:30;;;;;;;9.38;6.63;;;;;;;18.50;66.08;99921.59;4882751;28;97775;-77
2021/08/30 07:46:55;;;;;;;9.73;7.25;;;;;;;18.51;65.89;99920.63;4882606;28;97106;-81
2021/08/30 07:49:21;;;;;;;7.97;7.13;;;;;;;18.42;66.44;99921.31;4866960;28;96863;-76
2021/08/30 07:51:47;;;;;;;9.02;7.03;;;;;;;18.24;66.78;99928.81;4866566;28;101447;-76
2021/08/30 07:54:12;;;;;;;7.72;6.10;;;;;;;18.12;66.86;99927.00;4850742;28;101231;-75
2021/08/30 07:56:40;;;;;;;8.02;6.70;;;;;;;18.05;67.06;99925.75;4882842;28;96554;-76
2021/08/30 07:59:06;;;;;;;7.50;6.32;;;;;;;18.13;67.08;99933.19;4883039;28;96895;-75
2021/08/30 08:01:32;;;;;;;10.30;6.32;;;;;;;18.11;66.67;99933.28;4866291;28;98260;-77
2021/08/30 08:03:57;;;;;;;9.40;6.00;;;;;;;18.00;67.11;99931.38;4866771;28;97830;-79
2021/08/30 08:06:23;;;;;;;7.65;6.28;;;;;;;17.97;67.16;99936.91;4882631;28;96529;-79
2021/08/30 08:08:49;;;;;;;6.63;6.00;;;;;;;17.94;66.94;99938.94;4881776;28;96897;-77
2021/08/30 08:11:14;;;;;;;10.73;7.00;;;;;;;17.85;67.36;99935.97;4865382;28;97955;-76
2021/08/30 08:13:40;;;;;;;7.43;6.70;;;;;;;17.82;67.22;99938.84;4865736;28;99250;-76
2021/08/30 08:16:06;;;;;;;10.10;7.32;;;;;;;17.75;67.63;99934.91;4881056;28;96688;-76
2021/08/30 08:18:32;;;;;;;7.40;6.55;;;;;;;17.77;67.38;99937.44;4882891;28;96982;-76
2021/08/30 08:21:01;;;;;;;9.45;5.90;;;;;;;17.80;67.62;99951.41;4866328;28;97782;-76
2021/08/30 08:23:26;;;;;;;11.75;7.43;;;;;;;17.84;67.28;99952.03;4882253;28;97491;-77
2021/08/30 08:25:52;;;;;;;9.80;7.13;;;;;;;17.79;67.50;99948.84;4882502;28;96707;-76
2021/08/30 08:28:18;;;;;;;9.35;7.53;;;;;;;17.72;67.63;99950.22;4882875;28;96872;-77
2021/08/30 08:30:43;;;;;;;9.98;6.93;;;;;;;17.63;68.41;99957.84;4882849;28;97577;-75
2021/08/30 08:33:09;;;;;;;7.97;7.10;;;;;;;17.59;68.24;99956.34;4865781;28;101525;-75
2021/08/30 08:35:35;;;;;;;7.63;6.75;;;;;;;17.56;68.04;99953.06;4865943;28;96559;-75
2021/08/30 08:38:01;;;;;;;7.93;7.05;;;;;;;17.57;68.81;99966.22;4866016;28;96822;-75
2021/08/30 08:40:26;;;;;;;13.98;8.65;;;;;;;17.55;68.77;99954.88;4866047;28;97531;-80
2021/08/30 08:42:52;;;;;;;8.68;7.80;;;;;;;17.56;68.87;99959.19;4881294;28;101606;-81
2021/08/30 08:45:19;;;;;;;12.80;8.68;;;;;;;17.59;68.99;99960.81;4881810;28;96569;-81
2021/08/30 08:47:45;;;;;;;14.18;8.82;;;;;;;17.56;68.81;99967.16;4881786;28;97034;-80
2021/08/30 08:50:13;;;;;;;10.13;8.57;;;;;;;17.65;68.73;99966.53;4881993;28;98182;-80
2021/08/30 08:52:43;;;;;;;9.55;8.55;;;;;;;17.65;68.51;99963.88;4881748;28;97454;-81
2021/08/30 08:55:10;;;;;;;17.83;8.85;;;;;;;17.67;68.71;99960.28;4850541;28;96719;-75
2021/08/30 08:57:36;;;;;;;11.20;8.45;;;;;;;17.69;68.72;99966.34;4849782;28;96833;-76
2021/08/30 09:00:05;;;;;;;9.85;8.85;;;;;;;17.71;68.49;99951.97;4864730;28;100683;-76
2021/08/30 09:02:32;;;;;;;12.13;8.93;;;;;;;17.78;68.31;99950.66;4880948;28;98397;-76
2021/08/30 09:04:58;;;;;;;11.52;9.13;;;;;;;17.72;68.67;99952.88;4865407;28;96622;-75
2021/08/30 09:07:42;;;;;;;9.68;8.65;;;;;;;17.75;68.29;99952.66;4865933;28;96846;-76
2021/08/30 09:10:13;;;;;;;8.85;8.00;;;;;;;17.68;68.69;99957.50;4866180;28;101277;-74
2021/08/30 09:12:41;;;;;;;8.25;7.03;;;;;;;17.72;68.30;99956.34;4866459;28;97474;-75
2021/08/30 09:15:14;;;;;;;9.30;8.13;;;;;;;17.76;68.33;99957.00;4865965;28;96566;-74
2021/08/30 09:17:47;;;;;;;15.13;8.45;;;;;;;17.73;68.28;99962.50;4881409;28;96941;-75
2021/08/30 09:20:14;;;;;;;11.63;8.00;;;;;;;17.71;68.02;99951.13;4865374;28;101167;-74
2021/08/30 09:22:40;;;;;;;12.20;8.52;;;;;;;17.74;68.08;99950.94;4849322;28;101421;-75
2021/08/30 09:25:10;;;;;;;9.43;7.10;;;;;;;17.79;67.40;99959.47;4849135;28;96845;-75
2021/08/30 09:27:38;;;;;;;9.43;7.10;;;;;;;17.81;67.62;99946.94;4881804;28;96959;-75
2021/08/30 09:30:05;;;;;;;8.95;6.78;;;;;;;17.83;67.48;99950.31;4849094;28;101186;-75
2021/08/30 09:32:34;;;;;;;10.40;8.02;;;;;;;17.79;68.04;99947.03;4880807;28;101317;-74
2021/08/30 09:35:01;;;;;;;11.50;7.60;;;;;;;17.83;68.07;99950.31;4865029;28;96590;-74
2021/08/30 09:37:27;;;;;;;9.75;8.35;;;;;;;17.79;67.82;99949.69;4865448;28;96938;-74
2021/08/30 09:40:00;;;;;;;8.38;7.57;;;;;;;17.83;68.06;99943.22;4864190;28;101344;-74
2021/08/30 09:42:27;;;;;;;10.88;7.78;;;;;;;17.85;67.84;99941.28;4864965;28;101276;-75
2021/08/30 09:45:15;;;;;;;11.32;8.25;;;;;;;17.95;67.90;99946.81;4880742;28;96924;-75
2021/08/30 09:48:12;;;;;;;8.25;7.28;;;;;;;18.15;67.17;99937.44;4896834;28;96571;-75
2021/08/30 09:50:42;;;;;;;7.90;7.05;;;;;;;18.25;66.68;99943.78;4878019;28;101140;-75
2021/08/30 09:53:08;;;;;;;7.40;6.70;;;;;;;18.25;66.51;99937.63;4880623;28;97852;-75
2021/08/30 09:55:35;;;;;;;8.85;6.93;;;;;;;18.15;66.96;99948.06;4898421;28;96414;-75
2021/08/30 09:58:03;;;;;;;8.13;7.15;;;;;;;18.08;67.17;99941.47;4864994;28;96866;-75
2021/08/30 10:00:29;;;;;;;8.30;7.50;;;;;;;18.00;67.56;99949.97;4880365;28;97661;-75
2021/08/30 10:02:58;;;;;;;11.85;6.50;;;;;;;17.99;67.21;99950.09;4880100;28;101003;-75
2021/08/30 10:05:25;;;;;;;9.25;7.07;;;;;;;17.84;67.71;99949.38;4864870;28;96648;-75
2021/08/30 10:07:53;;;;;;;9.73;7.13;;;;;;;17.83;67.78;99945.00;4882550;28;96861;-75
2021/08/30 10:10:19;;;;;;;11.35;7.07;;;;;;;17.87;67.25;99934.06;4864788;28;101203;-74
2021/08/30 10:12:45;;;;;;;11.82;7.43;;;;;;;17.94;67.49;99944.25;4847972;28;101353;-75
2021/08/30 10:15:12;;;;;;;11.32;7.45;;;;;;;17.91;67.16;99932.03;4879722;28;96637;-77
2021/08/30 10:17:49;;;;;;;8.90;7.43;;;;;;;18.00;67.18;99943.81;4864932;28;96759;-76
2021/08/30 10:20:17;;;;;;;11.98;7.20;;;;;;;18.06;67.22;99940.72;4880864;28;101584;-75
2021/08/30 10:22:55;;;;;;;10.13;7.72;;;;;;;18.10;67.04;99944.88;4895338;28;101046;-75
2021/08/30 10:25:21;;;;;;;9.90;7.72;;;;;;;18.09;67.09;99945.81;4880200;28;96808;-77
2021/08/30 10:27:58;;;;;;;12.15;7.47;;;;;;;18.05;66.86;99934.56;4897407;28;96745;-77
2021/08/30 10:30:24;;;;;;;11.25;7.30;;;;;;;18.16;67.30;99944.44;4880108;28;97542;-77
2021/08/30 10:32:54;;;;;;;12.88;7.22;;;;;;;18.05;67.22;99939.88;4897095;28;98391;-77
2021/08/30 10:35:22;;;;;;;8.17;7.37;;;;;;;18.16;66.89;99941.78;4880714;28;96744;-79
2021/08/30 10:37:56;;;;;;;8.25;7.00;;;;;;;18.26;66.04;99939.31;4848593;28;96877;-79
2021/08/30 10:40:22;;;;;;;8.95;6.93;;;;;;;18.31;65.90;99937.16;4896599;28;97803;-79
2021/08/30 10:43:11;;;;;;;9.27;6.57;;;;;;;18.42;65.94;99939.06;4879879;28;97285;-79
2021/08/30 10:45:41;;;;;;;8.85;6.72;;;;;;;18.53;65.80;99936.47;4880244;28;96685;-80
2021/08/30 10:48:17;;;;;;;7.60;6.80;;;;;;;18.46;66.10;99933.41;4864386;28;96637;-80
2021/08/30 10:50:47;;;;;;;7.38;6.57;;;;;;;18.39;65.78;99933.97;4879262;28;101509;-79
2021/08/30 10:53:20;;;;;;;7.43;6.72;;;;;;;18.50;65.67;99939.31;4879675;28;97387;-78
2021/08/30 10:55:49;;;;;;;7.55;6.05;;;;;;;18.51;65.79;99930.41;4880318;28;96756;-76
2021/08/30 10:58:25;;;;;;;7.07;6.38;;;;;;;18.59;65.19;99929.84;4880006;28;96829;-75
2021/08/30 11:00:52;;;;;;;10.05;6.53;;;;;;;18.66;65.24;99939.91;4864285;28;97561;-75
2021/08/30 11:03:33;;;;;;;9.18;5.65;;;;;;;18.70;64.55;99936.09;4878611;28;97899;-76
2021/08/30 11:06:03;;;;;;;6.65;5.95;;;;;;;18.66;64.67;99931.09;4848099;28;96784;-76
2021/08/30 11:08:29;;;;;;;8.07;6.07;;;;;;;18.64;65.12;99925.03;4864954;28;96493;-76
2021/08/30 11:11:07;;;;;;;6.10;5.03;;;;;;;18.67;64.86;99938.94;4863974;28;98036;-76
2021/08/30 11:13:33;;;;;;;6.53;5.10;;;;;;;18.66;64.64;99937.25;4896750;28;96508;-76
2021/08/30 11:15:58;;;;;;;5.47;4.60;;;;;;;18.60;64.59;99932.38;4880301;28;96600;-76
2021/08/30 11:18:23;;;;;;;5.85;4.47;;;;;;;18.58;64.53;99944.94;4879970;28;96791;-76
2021/08/30 11:20:49;;;;;;;5.65;5.13;;;;;;;18.52;64.75;99942.72;4896525;28;97472;-76
2021/08/30 11:23:15;;;;;;;7.82;4.60;;;;;;;18.48;65.10;99930.63;4879674;28;98101;-76
2021/08/30 11:25:41;;;;;;;5.82;5.22;;;;;;;18.57;64.90;99939.75;4879198;28;96885;-76